Time;durP1;ratioP1;P1;durP2;ratioP2;P2;SDS_P1;SDS_P2;PMS_P1;PMS_P2;Temp;Humidity;BMP_temperature;BMP_pressure;BME280_temperature;BME280_humidity;BME280_pressure;Samples;Min_cycle;Max_cycle;Signal;HPM_P1;HPM_P2
2021/10/19 00:03:01;;;;;;;13.80;8.40;;;;;;;10.99;76.36;101049.70;139192;1184;108361;-80
2021/10/19 00:06:09;;;;;;;13.40;9.30;;;;;;;10.99;76.42;101048.63;139111;1183;108513;-79
2021/10/19 00:09:15;;;;;;;12.20;9.20;;;;;;;10.95;76.86;101057.42;139123;1190;108224;-79
2021/10/19 00:12:20;;;;;;;13.70;9.60;;;;;;;10.90;76.75;101052.52;139039;1190;108415;-81
2021/10/19 00:15:26;;;;;;;12.90;8.70;;;;;;;10.88;76.71;101052.17;139111;1190;108227;-80
2021/10/19 00:18:31;;;;;;;13.40;8.60;;;;;;;10.85;76.89;101057.23;139074;1189;108538;-80
2021/10/19 00:21:36;;;;;;;13.20;9.10;;;;;;;10.84;77.05;101056.26;139075;1189;108607;-80
2021/10/19 00:24:42;;;;;;;13.90;9.50;;;;;;;10.86;77.14;101052.70;139091;1183;108403;-80
2021/10/19 00:27:47;;;;;;;15.10;9.90;;;;;;;10.86;77.48;101051.46;139150;1197;108376;-80
2021/10/19 00:30:53;;;;;;;14.20;9.20;;;;;;;10.84;77.41;101052.35;139119;1177;108508;-79
2021/10/19 00:33:58;;;;;;;14.90;9.00;;;;;;;10.84;77.30;101051.77;139127;1190;108450;-79
2021/10/19 00:37:04;;;;;;;14.30;10.50;;;;;;;10.85;77.31;101049.77;138993;1189;107910;-79
2021/10/19 00:40:12;;;;;;;15.30;10.20;;;;;;;10.88;77.00;101045.94;139028;1189;108693;-80
2021/10/19 00:43:17;;;;;;;16.00;10.70;;;;;;;10.93;77.03;101047.66;139057;1190;108579;-81
2021/10/19 00:46:23;;;;;;;16.10;11.30;;;;;;;10.92;77.16;101043.94;139107;1190;108433;-80
2021/10/19 00:49:28;;;;;;;16.30;10.60;;;;;;;10.88;77.20;101039.86;139034;1190;108618;-78
2021/10/19 00:52:35;;;;;;;14.60;9.80;;;;;;;10.85;77.88;101039.96;138952;1190;108541;-79
2021/10/19 00:55:40;;;;;;;16.70;10.80;;;;;;;10.80;77.40;101036.48;138992;1184;106961;-79
2021/10/19 00:58:46;;;;;;;15.40;11.00;;;;;;;10.82;77.48;101038.61;138991;1189;110128;-78
2021/10/19 01:01:51;;;;;;;14.80;10.90;;;;;;;10.86;77.32;101032.02;139018;1189;108407;-79
2021/10/19 01:04:56;;;;;;;17.90;10.60;;;;;;;10.83;77.75;101027.02;139015;1189;108603;-79
2021/10/19 01:08:02;;;;;;;19.30;9.70;;;;;;;10.83;77.65;101023.94;139030;1190;107788;-79
2021/10/19 01:11:08;;;;;;;16.70;10.50;;;;;;;10.86;77.73;101025.09;138972;1190;107736;-78
2021/10/19 01:14:13;;;;;;;16.50;11.10;;;;;;;10.85;77.75;101023.78;139008;1189;107566;-78
2021/10/19 01:17:18;;;;;;;16.70;10.90;;;;;;;10.85;78.00;101021.50;139022;1190;108472;-80
2021/10/19 01:20:25;;;;;;;16.60;11.10;;;;;;;10.86;77.86;101019.36;139070;1189;107497;-78
2021/10/19 01:23:32;;;;;;;15.70;10.40;;;;;;;10.85;77.85;101016.47;139173;1190;108097;-81
2021/10/19 01:26:38;;;;;;;14.40;9.20;;;;;;;10.83;78.03;101016.27;139170;1190;107011;-82
2021/10/19 01:29:43;;;;;;;14.90;9.90;;;;;;;10.80;77.83;101013.14;139128;1189;108937;-82
2021/10/19 01:32:49;;;;;;;16.00;11.10;;;;;;;10.81;78.06;101010.41;139120;1182;109249;-83
2021/10/19 01:35:55;;;;;;;16.20;11.40;;;;;;;10.82;78.44;101006.96;139139;1190;108365;-83
2021/10/19 01:39:00;;;;;;;14.10;9.30;;;;;;;10.83;78.58;101005.84;139157;1190;108349;-80
2021/10/19 01:42:06;;;;;;;13.60;9.30;;;;;;;10.84;78.06;101004.49;139090;1189;108586;-80
2021/10/19 01:45:17;;;;;;;15.00;10.30;;;;;;;10.84;78.22;100998.74;139032;1190;108645;-80
2021/10/19 01:48:23;;;;;;;14.50;9.60;;;;;;;10.89;78.17;100994.52;139172;1183;106820;-81
2021/10/19 01:51:28;;;;;;;14.70;10.30;;;;;;;10.91;78.83;100995.27;139076;1191;108283;-83
2021/10/19 01:54:34;;;;;;;15.90;11.00;;;;;;;10.83;78.40;100993.84;139079;1190;108563;-82
2021/10/19 01:57:40;;;;;;;14.80;9.90;;;;;;;10.84;78.22;100992.05;139165;1189;108374;-83
2021/10/19 02:00:45;;;;;;;14.40;8.60;;;;;;;10.85;78.29;100994.74;139110;1190;108178;-83
2021/10/19 02:03:50;;;;;;;13.80;9.70;;;;;;;10.88;78.21;100996.83;139057;1190;108301;-84
2021/10/19 02:06:56;;;;;;;14.70;10.20;;;;;;;10.93;78.51;100998.14;139058;1190;107859;-78
2021/10/19 02:10:01;;;;;;;15.20;10.70;;;;;;;10.99;78.19;100994.77;139089;1189;108583;-78
2021/10/19 02:13:08;;;;;;;15.30;11.00;;;;;;;11.02;78.27;100997.70;139006;1190;108563;-78
2021/10/19 02:16:14;;;;;;;13.90;9.60;;;;;;;11.03;78.33;100995.85;139047;1189;108439;-80
2021/10/19 02:19:22;;;;;;;12.20;8.80;;;;;;;11.02;77.97;100994.70;138983;1190;108403;-79
2021/10/19 02:22:27;;;;;;;15.00;9.70;;;;;;;11.04;78.17;100993.94;139000;1191;108195;-80
2021/10/19 02:25:33;;;;;;;14.80;10.00;;;;;;;11.09;78.21;100995.47;139070;1189;108519;-79
2021/10/19 02:28:38;;;;;;;13.90;10.20;;;;;;;11.12;78.03;100997.84;139145;1189;108485;-80
2021/10/19 02:31:44;;;;;;;14.70;10.30;;;;;;;11.16;78.39;100999.27;139056;1178;108337;-80
2021/10/19 02:34:50;;;;;;;16.40;9.90;;;;;;;11.17;78.13;101005.10;139153;1189;108398;-81
2021/10/19 02:37:57;;;;;;;14.10;9.30;;;;;;;11.16;78.09;101003.69;139048;1190;108382;-81
2021/10/19 02:41:03;;;;;;;12.00;8.70;;;;;;;11.18;78.11;101007.48;139152;1190;108167;-83
2021/10/19 02:44:08;;;;;;;14.70;9.80;;;;;;;11.21;77.97;101008.30;139112;1189;108732;-81
2021/10/19 02:47:14;;;;;;;14.80;9.60;;;;;;;11.24;78.06;101008.06;139184;1189;108381;-83
2021/10/19 02:50:19;;;;;;;14.40;9.70;;;;;;;11.24;78.06;101009.61;139092;1190;107827;-84
2021/10/19 02:53:25;;;;;;;13.30;9.80;;;;;;;11.23;77.92;101010.98;139139;1190;108672;-85
2021/10/19 02:56:30;;;;;;;13.50;9.20;;;;;;;11.19;78.10;101008.58;139172;1189;108429;-85
2021/10/19 02:59:36;;;;;;;11.60;8.20;;;;;;;11.18;78.20;101013.48;139101;1190;108564;-83
2021/10/19 03:02:42;;;;;;;13.80;9.70;;;;;;;11.18;77.96;101006.02;139362;1190;108433;-81
2021/10/19 03:05:47;;;;;;;13.50;9.40;;;;;;;11.18;77.77;101001.74;139295;1190;108415;-83
2021/10/19 03:08:54;;;;;;;15.70;10.80;;;;;;;11.19;77.89;100999.36;139331;1189;108640;-84
2021/10/19 03:11:59;;;;;;;14.20;10.10;;;;;;;11.16;78.05;101000.70;139063;1190;108383;-85
2021/10/19 03:15:06;;;;;;;14.60;10.10;;;;;;;11.13;77.87;101001.30;139125;1189;108335;-85
2021/10/19 03:18:11;;;;;;;13.20;8.60;;;;;;;11.09;77.84;101000.81;139114;1189;108435;-84
2021/10/19 03:21:17;;;;;;;12.70;8.80;;;;;;;11.06;78.01;101002.91;139094;1189;109217;-83
2021/10/19 03:24:22;;;;;;;13.10;9.40;;;;;;;11.03;77.79;100997.06;139111;1190;108387;-84
2021/10/19 03:27:28;;;;;;;13.30;10.10;;;;;;;11.05;77.90;100991.92;139146;1189;108351;-83
2021/10/19 03:30:33;;;;;;;18.20;10.40;;;;;;;11.06;77.87;100992.15;139147;1189;108792;-83
2021/10/19 03:33:39;;;;;;;13.50;10.40;;;;;;;11.06;77.83;100985.94;139124;1192;108264;-83
2021/10/19 03:36:45;;;;;;;15.40;10.80;;;;;;;11.07;77.94;100984.64;139095;1190;108461;-84
2021/10/19 03:39:50;;;;;;;14.40;9.70;;;;;;;11.04;77.89;100982.73;139131;1189;108732;-83
2021/10/19 03:42:56;;;;;;;13.00;8.30;;;;;;;11.02;77.94;100980.58;139103;1189;108388;-85
2021/10/19 03:46:01;;;;;;;13.50;10.10;;;;;;;11.03;77.86;100974.31;139153;1189;107834;-84
2021/10/19 03:49:07;;;;;;;15.30;11.20;;;;;;;11.06;77.63;100974.42;139143;1190;106979;-83
2021/10/19 03:52:12;;;;;;;16.20;11.10;;;;;;;11.07;77.80;100975.35;139118;1189;108421;-84
2021/10/19 03:55:17;;;;;;;14.30;10.60;;;;;;;11.06;77.63;100977.61;139143;1189;108435;-84
2021/10/19 03:58:23;;;;;;;16.00;11.60;;;;;;;11.04;77.73;100977.07;139159;1189;108865;-82
2021/10/19 04:01:28;;;;;;;13.00;9.40;;;;;;;10.98;77.60;100974.15;139087;1190;108417;-83
2021/10/19 04:04:35;;;;;;;14.60;9.10;;;;;;;10.96;77.60;100982.02;139132;1190;108137;-82
2021/10/19 04:07:42;;;;;;;14.00;10.30;;;;;;;10.95;77.64;100987.11;139165;1190;107242;-83
2021/10/19 04:10:48;;;;;;;13.80;10.30;;;;;;;10.97;77.43;100989.04;139109;1190;108364;-82
2021/10/19 04:13:53;;;;;;;16.90;12.20;;;;;;;11.01;77.71;100989.41;139183;1190;108438;-83
2021/10/19 04:16:58;;;;;;;18.60;13.60;;;;;;;11.02;77.54;100995.23;139131;1190;108377;-80
2021/10/19 04:20:04;;;;;;;21.70;15.20;;;;;;;11.02;77.78;101000.57;139121;1190;108617;-79
2021/10/19 04:23:10;;;;;;;23.90;15.20;;;;;;;11.00;77.80;101006.19;139127;1183;106894;-80
2021/10/19 04:26:15;;;;;;;21.90;14.30;;;;;;;10.98;77.88;101007.65;139138;1190;107851;-80
2021/10/19 04:29:20;;;;;;;18.40;12.70;;;;;;;10.97;78.10;101008.29;139118;1192;108436;-82
2021/10/19 04:32:26;;;;;;;21.90;15.70;;;;;;;10.98;78.13;101011.36;139164;1190;108306;-83
2021/10/19 04:35:31;;;;;;;22.60;15.90;;;;;;;10.99;77.94;101015.61;139106;1189;108366;-82
2021/10/19 04:38:38;;;;;;;23.10;15.50;;;;;;;11.01;77.70;101020.35;139113;1193;108363;-81
2021/10/19 04:41:44;;;;;;;23.10;14.10;;;;;;;11.03;77.72;101019.20;139100;1189;107199;-81
2021/10/19 04:44:50;;;;;;;21.80;13.70;;;;;;;11.00;77.67;101019.20;139091;1189;108596;-82
2021/10/19 04:47:55;;;;;;;23.80;15.40;;;;;;;11.02;77.75;101023.51;139116;1190;108562;-82
2021/10/19 04:51:00;;;;;;;24.70;16.30;;;;;;;11.04;77.72;101024.27;139111;1193;108339;-83
2021/10/19 04:54:06;;;;;;;24.80;16.80;;;;;;;11.06;77.71;101027.96;139070;1189;108385;-79
2021/10/19 04:57:12;;;;;;;23.60;16.60;;;;;;;11.07;77.76;101026.15;139113;1190;108568;-81
2021/10/19 05:00:18;;;;;;;24.90;16.70;;;;;;;11.06;77.78;101026.70;139108;1190;108341;-82
2021/10/19 05:03:23;;;;;;;43.10;28.50;;;;;;;11.05;77.96;101030.15;139077;1189;108305;-78
2021/10/19 05:06:29;;;;;;;43.10;26.20;;;;;;;11.02;77.63;101022.27;139001;1190;108413;-81
2021/10/19 05:09:34;;;;;;;125.00;57.30;;;;;;;11.00;77.51;101018.88;139164;1197;108443;-80
2021/10/19 05:12:40;;;;;;;131.80;61.90;;;;;;;11.03;77.59;101016.48;139095;1189;108397;-81
2021/10/19 05:15:45;;;;;;;81.40;42.00;;;;;;;11.06;77.65;101012.48;139108;1190;108474;-80
2021/10/19 05:18:53;;;;;;;52.50;32.90;;;;;;;11.06;77.48;101015.70;139158;1189;108455;-79
2021/10/19 05:21:59;;;;;;;197.90;95.50;;;;;;;11.03;77.75;101012.77;139178;1190;108783;-80
2021/10/19 05:25:05;;;;;;;92.10;47.20;;;;;;;10.97;77.37;101010.36;139097;1196;108382;-79
2021/10/19 05:28:11;;;;;;;36.40;22.10;;;;;;;10.94;77.79;100999.30;139087;1190;109034;-79
2021/10/19 05:31:17;;;;;;;31.40;20.90;;;;;;;10.90;77.70;100999.98;139154;1196;109289;-81
2021/10/19 05:34:22;;;;;;;30.20;20.00;;;;;;;10.89;77.23;101007.91;139135;1189;108569;-80
2021/10/19 05:37:28;;;;;;;48.50;33.40;;;;;;;10.88;77.64;101018.20;138993;1190;108165;-83
2021/10/19 05:40:33;;;;;;;49.00;33.90;;;;;;;10.85;77.35;101021.64;139239;1189;107477;-76
2021/10/19 05:43:38;;;;;;;32.40;21.90;;;;;;;10.80;77.60;101016.56;139082;1192;108447;-76
2021/10/19 05:46:44;;;;;;;27.20;18.30;;;;;;;10.72;77.54;101019.91;138968;1180;108452;-79
2021/10/19 05:49:54;;;;;;;33.30;21.80;;;;;;;10.67;77.32;101018.94;139065;1190;108321;-78
2021/10/19 05:53:01;;;;;;;26.50;17.70;;;;;;;10.64;77.42;101023.64;138939;1183;105847;-78
2021/10/19 05:56:07;;;;;;;25.40;17.90;;;;;;;10.59;77.62;101023.34;139019;1189;108358;-78
2021/10/19 05:59:12;;;;;;;27.20;17.30;;;;;;;10.60;77.77;101023.80;139037;1190;108279;-79
2021/10/19 06:02:18;;;;;;;25.50;17.20;;;;;;;10.64;77.10;101022.91;138981;1191;108580;-78
2021/10/19 06:05:23;;;;;;;25.10;17.00;;;;;;;10.67;77.31;101020.88;139064;1197;106906;-80
2021/10/19 06:08:28;;;;;;;62.50;35.00;;;;;;;10.68;77.47;101024.40;138978;1190;108561;-79
2021/10/19 06:11:34;;;;;;;40.60;22.70;;;;;;;10.69;77.50;101018.25;139012;1190;108898;-76
2021/10/19 06:14:39;;;;;;;29.00;19.10;;;;;;;10.77;77.62;101015.94;138995;1190;108471;-77
2021/10/19 06:17:45;;;;;;;26.20;17.60;;;;;;;10.89;77.76;101019.45;138988;1190;108541;-77
2021/10/19 06:20:50;;;;;;;24.40;17.30;;;;;;;11.03;77.69;101017.88;139006;1190;108383;-76
2021/10/19 06:23:56;;;;;;;25.40;17.30;;;;;;;11.16;77.57;101019.59;139022;1190;108553;-76
2021/10/19 06:27:01;;;;;;;27.10;17.10;;;;;;;11.28;77.62;101020.66;138976;1193;108492;-78
2021/10/19 06:30:10;;;;;;;26.10;15.50;;;;;;;11.36;77.75;101022.19;138981;1190;108352;-80
2021/10/19 06:33:15;;;;;;;24.40;15.40;;;;;;;11.46;77.39;101019.07;139001;1191;108339;-78
2021/10/19 06:36:21;;;;;;;21.80;14.90;;;;;;;11.53;77.28;101013.70;138972;1190;108461;-76
2021/10/19 06:39:26;;;;;;;23.10;15.70;;;;;;;11.65;77.45;101020.16;139009;1192;108437;-77
2021/10/19 06:42:31;;;;;;;23.50;16.80;;;;;;;11.73;77.15;101018.65;139268;1190;108475;-76
2021/10/19 06:45:37;;;;;;;25.10;17.40;;;;;;;11.82;77.16;101019.68;139058;1183;108405;-76
2021/10/19 06:48:42;;;;;;;26.00;17.30;;;;;;;11.89;77.12;101019.00;139118;1196;108232;-76
2021/10/19 06:51:48;;;;;;;19.50;13.60;;;;;;;11.94;77.09;101013.55;139011;1192;107262;-76
2021/10/19 06:54:53;;;;;;;22.30;15.70;;;;;;;11.98;77.06;101018.54;138975;1193;108479;-78
2021/10/19 06:57:59;;;;;;;24.10;16.20;;;;;;;12.05;77.08;101018.38;139070;1192;108504;-77
2021/10/19 07:01:05;;;;;;;24.40;16.80;;;;;;;12.14;77.11;101023.40;139074;1183;108415;-79
2021/10/19 07:04:11;;;;;;;23.60;16.30;;;;;;;12.23;77.08;101025.80;139148;1189;108832;-79
2021/10/19 07:07:16;;;;;;;25.00;16.60;;;;;;;12.32;76.93;101025.02;139167;1189;107460;-78
2021/10/19 07:10:22;;;;;;;20.90;15.50;;;;;;;12.33;76.77;101029.83;139097;1192;108614;-77
2021/10/19 07:13:27;;;;;;;19.40;13.80;;;;;;;12.36;76.67;101032.27;139095;1184;108362;-81
2021/10/19 07:16:32;;;;;;;22.20;13.90;;;;;;;12.40;76.73;101028.88;139209;1189;108566;-77
2021/10/19 07:19:39;;;;;;;20.70;14.80;;;;;;;12.45;76.53;101025.02;139138;1189;108495;-75
2021/10/19 07:22:45;;;;;;;23.40;16.80;;;;;;;12.52;76.49;101031.09;139087;1189;108732;-74
2021/10/19 07:25:52;;;;;;;23.20;16.10;;;;;;;12.60;76.27;101032.86;139263;1189;108994;-75
2021/10/19 07:28:57;;;;;;;25.30;16.80;;;;;;;12.66;76.26;101026.18;139113;1190;108468;-74
2021/10/19 07:32:03;;;;;;;23.40;16.50;;;;;;;12.69;76.18;101023.91;139100;1183;108455;-75
2021/10/19 07:35:09;;;;;;;21.90;15.40;;;;;;;12.70;76.03;101021.86;139023;1183;108545;-75
2021/10/19 07:38:15;;;;;;;23.70;16.90;;;;;;;12.69;76.06;101020.23;139090;1183;107921;-73
2021/10/19 07:41:20;;;;;;;21.60;15.30;;;;;;;12.69;76.21;101019.89;139059;1184;108339;-74
2021/10/19 07:44:25;;;;;;;39.10;30.90;;;;;;;12.71;76.14;101018.55;139225;1189;108574;-77
2021/10/19 07:47:31;;;;;;;25.50;17.70;;;;;;;12.76;76.13;101015.57;139066;1190;108387;-76
2021/10/19 07:50:36;;;;;;;23.20;16.60;;;;;;;12.82;76.03;101007.14;138987;1184;108594;-79
2021/10/19 07:53:41;;;;;;;23.50;16.00;;;;;;;12.86;75.58;100999.79;139020;1190;108438;-75
2021/10/19 07:56:47;;;;;;;23.00;16.90;;;;;;;12.89;75.51;101000.41;139008;1193;108548;-73
2021/10/19 07:59:52;;;;;;;22.20;16.60;;;;;;;12.94;75.58;101002.95;139257;1184;108548;-75
2021/10/19 08:03:04;;;;;;;35.40;26.20;;;;;;;12.99;75.38;101002.66;139353;1190;107879;-74
2021/10/19 08:06:10;;;;;;;26.30;19.50;;;;;;;13.01;75.38;101011.02;139512;1184;108301;-74
2021/10/19 08:09:15;;;;;;;54.10;37.70;;;;;;;13.11;75.20;101013.02;139098;1184;108235;-73
2021/10/19 08:12:21;;;;;;;40.70;27.10;;;;;;;13.22;75.19;101017.33;139102;1195;108422;-73
2021/10/19 08:15:27;;;;;;;30.10;22.10;;;;;;;13.31;74.94;101015.25;139033;1184;108115;-73
2021/10/19 08:18:32;;;;;;;21.90;16.70;;;;;;;13.38;74.93;101013.35;139155;1190;108630;-75
2021/10/19 08:21:41;;;;;;;20.80;15.50;;;;;;;13.42;74.66;101005.82;138998;1182;108647;-76
2021/10/19 08:24:47;;;;;;;41.50;29.80;;;;;;;13.42;74.59;100999.90;138934;1183;108404;-74
2021/10/19 08:27:52;;;;;;;30.10;22.50;;;;;;;13.44;74.61;101001.86;139154;1183;108326;-74
2021/10/19 08:30:58;;;;;;;23.10;15.90;;;;;;;13.46;74.43;101005.20;139029;1183;109864;-74
2021/10/19 08:34:03;;;;;;;19.80;13.40;;;;;;;13.42;74.21;101007.52;138978;1190;108483;-74
2021/10/19 08:37:16;;;;;;;21.00;13.10;;;;;;;13.39;74.24;101010.17;139005;1184;108512;-78
2021/10/19 08:40:23;;;;;;;19.00;13.10;;;;;;;13.37;74.09;101007.86;139020;1182;108579;-75
2021/10/19 08:43:28;;;;;;;19.10;14.30;;;;;;;13.40;74.08;101008.83;139016;1183;108556;-75
2021/10/19 08:46:33;;;;;;;20.00;14.50;;;;;;;13.44;73.91;101012.67;138969;1190;108464;-74
2021/10/19 08:49:39;;;;;;;20.50;14.70;;;;;;;13.49;73.89;101010.21;139075;1190;108554;-75
2021/10/19 08:52:44;;;;;;;21.90;14.30;;;;;;;13.53;73.76;101006.41;139076;1190;108472;-75
2021/10/19 08:55:50;;;;;;;21.30;14.20;;;;;;;13.59;73.49;101004.27;139027;1190;108593;-75
2021/10/19 08:59:01;;;;;;;23.10;15.90;;;;;;;13.65;73.49;101001.70;139028;1184;108429;-76
2021/10/19 09:02:07;;;;;;;27.40;17.40;;;;;;;13.70;73.34;101003.27;139050;1184;108295;-75
2021/10/19 09:05:18;;;;;;;20.20;14.30;;;;;;;13.75;73.26;101002.09;138995;1192;108233;-74
2021/10/19 09:08:25;;;;;;;17.60;12.70;;;;;;;13.81;73.24;101004.48;139005;1190;108561;-75
2021/10/19 09:11:39;;;;;;;18.80;12.30;;;;;;;13.89;72.94;100997.42;139031;1184;108349;-75
2021/10/19 09:14:44;;;;;;;18.50;12.50;;;;;;;14.07;73.13;100997.73;139089;1183;109060;-75
2021/10/19 09:17:50;;;;;;;19.70;12.70;;;;;;;14.33;72.86;100994.42;139085;1184;108238;-75
2021/10/19 09:20:57;;;;;;;17.10;12.70;;;;;;;14.60;72.34;100996.39;139004;1184;108257;-75
2021/10/19 09:24:20;;;;;;;19.10;12.90;;;;;;;14.87;72.23;100990.69;138980;1184;108559;-75
2021/10/19 09:27:25;;;;;;;16.50;12.30;;;;;;;15.15;72.11;100977.89;139074;1190;108445;-75
2021/10/19 09:30:40;;;;;;;18.00;13.00;;;;;;;15.37;71.75;100974.96;139011;1183;108451;-75
2021/10/19 09:33:45;;;;;;;16.30;12.40;;;;;;;15.52;71.27;100969.92;139069;1190;108411;-76
2021/10/19 09:36:52;;;;;;;16.50;12.40;;;;;;;15.67;71.33;100966.27;139029;1190;108587;-74
2021/10/19 09:40:00;;;;;;;16.60;11.60;;;;;;;15.83;70.66;100962.98;138970;1183;108419;-75
2021/10/19 09:43:07;;;;;;;14.30;10.70;;;;;;;15.92;70.69;100964.25;139059;1184;108450;-76
2021/10/19 09:46:13;;;;;;;15.40;11.50;;;;;;;15.97;70.51;100960.13;138985;1190;108588;-76
2021/10/19 09:49:21;;;;;;;15.90;11.20;;;;;;;16.00;70.52;100957.64;139065;1184;108545;-78
2021/10/19 09:52:28;;;;;;;16.00;11.60;;;;;;;16.07;70.46;100954.73;139123;1182;106149;-78
2021/10/19 09:55:34;;;;;;;16.30;11.40;;;;;;;16.15;69.88;100952.39;138992;1183;108515;-78
2021/10/19 09:58:42;;;;;;;15.80;10.60;;;;;;;16.19;69.78;100950.16;139020;1183;107964;-78
2021/10/19 10:01:48;;;;;;;14.40;9.80;;;;;;;16.25;69.74;100950.94;139001;1190;108385;-76
2021/10/19 10:04:55;;;;;;;13.90;9.40;;;;;;;16.26;68.88;100961.64;138974;1184;108491;-73
2021/10/19 10:08:02;;;;;;;12.50;10.40;;;;;;;16.22;69.02;100966.67;139182;1190;107397;-75
2021/10/19 10:11:07;;;;;;;14.20;10.80;;;;;;;16.25;69.17;100963.67;139178;1188;108432;-75
2021/10/19 10:14:14;;;;;;;13.80;10.10;;;;;;;16.24;68.50;100959.66;139089;1190;108426;-74
2021/10/19 10:17:20;;;;;;;13.30;10.20;;;;;;;16.18;68.70;100964.83;139008;1184;108408;-74
2021/10/19 10:20:31;;;;;;;11.60;9.60;;;;;;;16.19;68.65;100955.45;139040;1190;108406;-73
2021/10/19 10:23:37;;;;;;;13.40;9.60;;;;;;;16.22;68.62;100946.65;139057;1183;107820;-73
2021/10/19 10:26:42;;;;;;;12.80;9.70;;;;;;;16.25;68.39;100930.98;138982;1184;108862;-74
2021/10/19 10:29:49;;;;;;;12.50;9.80;;;;;;;16.29;68.10;100922.52;138923;1177;108538;-74
2021/10/19 10:33:05;;;;;;;15.00;10.40;;;;;;;16.31;67.71;100915.21;139049;1183;108527;-74
2021/10/19 10:36:12;;;;;;;13.00;9.50;;;;;;;16.34;67.80;100912.54;138976;1184;107186;-75
2021/10/19 10:39:17;;;;;;;13.90;9.40;;;;;;;16.36;67.54;100903.91;139037;1190;108592;-75
2021/10/19 10:42:22;;;;;;;11.70;9.20;;;;;;;16.40;67.50;100906.98;138889;1184;108463;-84
2021/10/19 10:45:33;;;;;;;12.80;8.80;;;;;;;16.45;67.19;100905.14;139255;1183;108361;-76
2021/10/19 10:48:39;;;;;;;11.80;8.00;;;;;;;16.46;66.98;100894.98;139104;1184;108395;-75
2021/10/19 10:51:46;;;;;;;11.90;7.80;;;;;;;16.50;66.98;100890.11;139041;1184;108387;-74
2021/10/19 10:54:56;;;;;;;10.70;8.00;;;;;;;16.55;66.80;100894.59;139009;1184;108398;-74
2021/10/19 10:58:02;;;;;;;9.40;7.30;;;;;;;16.57;66.67;100895.59;138991;1184;109326;-75
2021/10/19 11:01:18;;;;;;;13.70;8.20;;;;;;;16.59;66.51;100897.91;139012;1183;108412;-75
2021/10/19 11:04:23;;;;;;;11.10;8.60;;;;;;;16.60;66.43;100892.66;138991;1184;107910;-75
2021/10/19 11:07:30;;;;;;;11.00;8.50;;;;;;;16.56;66.23;100896.07;138979;1183;108652;-74
2021/10/19 11:10:36;;;;;;;11.00;8.20;;;;;;;16.53;66.20;100898.39;138964;1184;108466;-78
2021/10/19 11:13:55;;;;;;;13.00;8.40;;;;;;;16.49;66.36;100902.91;139009;1184;106442;-75
2021/10/19 11:17:00;;;;;;;11.50;8.40;;;;;;;16.46;65.85;100904.90;139004;1184;108501;-76
2021/10/19 11:20:08;;;;;;;10.40;7.80;;;;;;;16.42;65.95;100911.42;138971;1192;108345;-74
2021/10/19 11:23:15;;;;;;;12.40;7.90;;;;;;;16.42;65.97;100915.98;138965;1184;108562;-74
2021/10/19 11:26:21;;;;;;;11.10;7.90;;;;;;;16.43;65.75;100908.48;138937;1184;108353;-74
2021/10/19 11:29:27;;;;;;;11.20;7.90;;;;;;;16.43;65.53;100896.06;139015;1184;108542;-77
2021/10/19 11:32:33;;;;;;;11.90;7.80;;;;;;;16.46;65.44;100895.77;138952;1184;108377;-72
2021/10/19 11:35:39;;;;;;;9.60;7.30;;;;;;;16.53;65.40;100888.14;139007;1184;108545;-75
2021/10/19 11:38:46;;;;;;;10.90;8.10;;;;;;;16.58;65.21;100882.35;138999;1184;107842;-75
2021/10/19 11:41:57;;;;;;;12.10;8.30;;;;;;;16.61;64.70;100879.27;139012;1184;108426;-75
2021/10/19 11:45:02;;;;;;;10.60;8.00;;;;;;;16.63;64.19;100877.14;139079;1184;108535;-74
2021/10/19 11:48:10;;;;;;;9.90;7.50;;;;;;;16.62;64.38;100870.73;138924;1184;108435;-74
2021/10/19 11:51:18;;;;;;;10.70;8.00;;;;;;;16.63;64.14;100855.71;139012;1184;108130;-73
2021/10/19 11:54:24;;;;;;;10.60;8.10;;;;;;;16.65;64.25;100846.70;138916;1184;109158;-73
2021/10/19 11:57:35;;;;;;;10.80;7.40;;;;;;;16.72;64.19;100845.52;138974;1184;106771;-72
2021/10/19 12:00:41;;;;;;;10.80;7.80;;;;;;;16.80;63.86;100835.44;139050;1190;108568;-73
2021/10/19 12:03:56;;;;;;;8.60;6.90;;;;;;;16.90;63.80;100827.95;139095;1190;107450;-73
2021/10/19 12:07:02;;;;;;;11.20;8.30;;;;;;;17.02;63.53;100828.20;138896;1193;108605;-73
2021/10/19 12:10:12;;;;;;;11.10;7.90;;;;;;;16.98;62.77;100818.67;138939;1192;108557;-75
2021/10/19 12:13:19;;;;;;;10.70;7.70;;;;;;;16.90;63.12;100815.60;139059;1184;106704;-76
2021/10/19 12:16:28;;;;;;;11.90;8.00;;;;;;;16.85;63.09;100810.79;138932;1193;108603;-72
2021/10/19 12:19:36;;;;;;;10.60;7.70;;;;;;;16.78;63.11;100811.25;139009;1184;106910;-70
2021/10/19 12:22:42;;;;;;;11.20;8.20;;;;;;;16.67;62.81;100813.42;138998;1184;108271;-72
2021/10/19 12:25:49;;;;;;;10.10;7.20;;;;;;;16.63;62.95;100805.56;139082;1184;108788;-74
2021/10/19 12:28:57;;;;;;;10.90;6.80;;;;;;;16.62;62.60;100799.04;139016;1184;108438;-72
2021/10/19 12:32:03;;;;;;;9.80;7.50;;;;;;;16.60;62.37;100796.06;138930;1184;108465;-73
2021/10/19 12:35:11;;;;;;;9.90;6.90;;;;;;;16.60;62.32;100796.96;138999;1192;108393;-72
2021/10/19 12:38:17;;;;;;;10.70;7.30;;;;;;;16.65;62.32;100793.74;138927;1184;108427;-71
2021/10/19 12:41:23;;;;;;;11.50;8.50;;;;;;;16.69;62.25;100788.55;138982;1184;108456;-72
2021/10/19 12:44:29;;;;;;;9.80;7.90;;;;;;;16.72;61.87;100787.67;138980;1192;108541;-71
2021/10/19 12:47:34;;;;;;;11.10;7.90;;;;;;;16.77;61.83;100780.97;138893;1184;108589;-70
2021/10/19 12:50:41;;;;;;;11.70;7.80;;;;;;;16.83;61.73;100772.09;139002;1184;108376;-72
2021/10/19 12:53:49;;;;;;;12.10;8.60;;;;;;;16.85;61.42;100771.11;138931;1193;108553;-72
2021/10/19 12:56:54;;;;;;;11.60;7.60;;;;;;;16.83;61.55;100762.13;138999;1184;107300;-72
2021/10/19 13:00:00;;;;;;;10.50;7.30;;;;;;;16.82;61.25;100762.27;139053;1184;108377;-70
2021/10/19 13:03:05;;;;;;;9.70;7.30;;;;;;;16.78;61.01;100759.64;138869;1184;107448;-71
2021/10/19 13:06:14;;;;;;;11.20;7.10;;;;;;;16.75;61.25;100756.14;139036;1183;108721;-73
2021/10/19 13:09:19;;;;;;;11.60;7.30;;;;;;;16.68;61.00;100755.58;138918;1184;108559;-71
2021/10/19 13:12:25;;;;;;;10.30;7.30;;;;;;;16.64;61.23;100747.53;138993;1184;109267;-72
2021/10/19 13:15:30;;;;;;;10.50;7.50;;;;;;;16.57;61.12;100733.70;138983;1190;107387;-72
2021/10/19 13:18:38;;;;;;;13.70;8.20;;;;;;;16.51;61.24;100739.89;139038;1184;108580;-72
2021/10/19 13:21:45;;;;;;;10.50;8.00;;;;;;;16.45;61.08;100739.66;139015;1184;108386;-72
2021/10/19 13:24:52;;;;;;;12.20;8.00;;;;;;;16.41;61.03;100739.42;138945;1184;107251;-72
2021/10/19 13:27:58;;;;;;;12.90;8.30;;;;;;;16.36;61.13;100732.59;138952;1184;108440;-73
2021/10/19 13:31:04;;;;;;;13.00;8.60;;;;;;;16.34;61.20;100724.80;138894;1184;107344;-72
2021/10/19 13:34:10;;;;;;;10.70;7.80;;;;;;;16.33;61.11;100711.30;138950;1184;108372;-72
2021/10/19 13:37:16;;;;;;;12.80;8.20;;;;;;;16.28;61.17;100715.54;138971;1184;108456;-72
2021/10/19 13:40:22;;;;;;;13.10;8.20;;;;;;;16.21;60.49;100716.36;138978;1184;106650;-73
2021/10/19 13:43:28;;;;;;;12.70;8.50;;;;;;;16.09;60.63;100708.08;138958;1184;108074;-73
2021/10/19 13:46:34;;;;;;;12.90;7.90;;;;;;;16.00;60.74;100710.75;138913;1184;108259;-72
2021/10/19 13:49:39;;;;;;;9.70;8.00;;;;;;;15.93;60.77;100703.99;138983;1184;108397;-72
2021/10/19 13:52:45;;;;;;;10.40;7.20;;;;;;;15.84;60.87;100704.68;138958;1184;108619;-72